Time;durP1;ratioP1;P1;durP2;ratioP2;P2;SDS_P1;SDS_P2;PMS_P1;PMS_P2;Temp;Humidity;BMP_temperature;BMP_pressure;BME280_temperature;BME280_humidity;BME280_pressure;Samples;Min_cycle;Max_cycle;Signal;HPM_P1;HPM_P2
2023/09/29 00:01:24;;;;;;;0.50;0.50;;;19.00;60.90;;;;;;5155627;27;20087;-68
2023/09/29 00:03:50;;;;;;;0.55;0.55;;;19.10;61.00;;;;;;5154980;27;20022;-68
2023/09/29 00:06:16;;;;;;;0.75;0.60;;;19.10;61.00;;;;;;5154934;27;20364;-68
2023/09/29 00:08:41;;;;;;;0.50;0.50;;;19.10;61.00;;;;;;5154859;27;20475;-68
2023/09/29 00:11:07;;;;;;;0.82;0.82;;;19.20;61.00;;;;;;5155218;27;20041;-68
2023/09/29 00:13:33;;;;;;;0.70;0.70;;;19.20;61.00;;;;;;5154156;27;20023;-68
2023/09/29 00:15:58;;;;;;;0.40;0.40;;;19.20;61.00;;;;;;5155539;27;20027;-68
2023/09/29 00:18:24;;;;;;;0.40;0.40;;;19.20;61.00;;;;;;5155347;27;20029;-68
2023/09/29 00:20:49;;;;;;;0.50;0.50;;;19.20;60.90;;;;;;5155225;27;20041;-68
2023/09/29 00:23:15;;;;;;;0.50;0.50;;;19.30;60.90;;;;;;5154645;27;20037;-68
2023/09/29 00:25:41;;;;;;;0.40;0.40;;;19.30;60.90;;;;;;5155099;27;20034;-68
2023/09/29 00:28:06;;;;;;;0.50;0.50;;;19.30;60.90;;;;;;5154449;27;20019;-68
2023/09/29 00:30:32;;;;;;;0.40;0.40;;;19.30;61.00;;;;;;5154993;27;20027;-68
2023/09/29 00:32:57;;;;;;;0.32;0.32;;;19.30;61.10;;;;;;5154529;27;20378;-68
2023/09/29 00:37:56;;;;;;;0.70;0.70;;;19.30;61.10;;;;;;5167697;27;20045;-68
2023/09/29 00:40:22;;;;;;;0.50;0.50;;;19.40;61.10;;;;;;5175407;27;20038;-68
2023/09/29 00:42:52;;;;;;;0.40;0.40;;;19.40;61.10;;;;;;5174916;27;20358;-68
2023/09/29 00:45:22;;;;;;;0.50;0.50;;;19.50;61.10;;;;;;5175562;27;20092;-68
2023/09/29 00:47:55;;;;;;;0.45;0.45;;;19.40;61.10;;;;;;5174861;27;20075;-68
2023/09/29 00:50:23;;;;;;;0.30;0.30;;;19.50;61.10;;;;;;5175292;27;20093;-67
2023/09/29 00:52:52;;;;;;;0.50;0.50;;;19.50;61.00;;;;;;5174988;27;20022;-68
2023/09/29 00:55:23;;;;;;;0.50;0.50;;;19.50;60.90;;;;;;5175329;27;20022;-68
2023/09/29 00:57:50;;;;;;;0.80;0.80;;;19.50;60.80;;;;;;5175263;27;20056;-68
2023/09/29 01:00:29;;;;;;;2.17;0.80;;;19.50;60.90;;;;;;5175266;27;20038;-66
2023/09/29 01:02:55;;;;;;;1.17;0.75;;;19.50;61.00;;;;;;5173812;27;20049;-67
2023/09/29 01:05:21;;;;;;;0.50;0.50;;;19.60;61.20;;;;;;5174043;27;20026;-68
2023/09/29 01:07:48;;;;;;;0.50;0.50;;;19.70;61.50;;;;;;5173605;27;20026;-67
2023/09/29 01:10:13;;;;;;;0.60;0.57;;;19.70;61.50;;;;;;5174027;27;20121;-67
2023/09/29 01:12:40;;;;;;;0.40;0.40;;;19.80;61.60;;;;;;5173952;27;20477;-67
2023/09/29 01:15:06;;;;;;;0.65;0.60;;;19.90;61.70;;;;;;5174104;27;20026;-67
2023/09/29 01:17:32;;;;;;;0.40;0.40;;;20.00;61.70;;;;;;5173744;27;20074;-67
2023/09/29 01:19:57;;;;;;;0.50;0.50;;;20.00;61.90;;;;;;5173763;27;20402;-67
2023/09/29 01:22:23;;;;;;;1.08;0.93;;;20.10;62.20;;;;;;5173849;27;20030;-67
2023/09/29 01:24:48;;;;;;;0.40;0.40;;;20.20;62.10;;;;;;5173811;27;20503;-68
2023/09/29 01:27:14;;;;;;;0.47;0.47;;;20.30;62.50;;;;;;5173411;27;20014;-68
2023/09/29 01:29:41;;;;;;;0.40;0.40;;;20.30;62.70;;;;;;5173651;27;20039;-67
2023/09/29 01:32:11;;;;;;;0.52;0.52;;;20.40;62.80;;;;;;5173727;27;20025;-67
2023/09/29 01:34:37;;;;;;;0.80;0.70;;;20.40;63.00;;;;;;5172716;27;20041;-67
2023/09/29 01:37:04;;;;;;;0.80;0.80;;;20.60;63.00;;;;;;5166792;27;20103;-67
2023/09/29 01:39:30;;;;;;;0.50;0.50;;;20.60;63.10;;;;;;5152953;27;20030;-67
2023/09/29 01:41:56;;;;;;;0.77;0.77;;;20.70;63.10;;;;;;5166008;27;20029;-67
2023/09/29 01:44:22;;;;;;;0.45;0.45;;;20.80;63.00;;;;;;5173586;27;20122;-67
2023/09/29 01:46:49;;;;;;;0.73;0.73;;;20.90;63.00;;;;;;5173407;27;20478;-68
2023/09/29 01:49:15;;;;;;;0.60;0.60;;;21.00;63.00;;;;;;5173458;27;20026;-67
2023/09/29 01:51:44;;;;;;;0.50;0.50;;;21.00;63.00;;;;;;5175416;27;20030;-67
2023/09/29 01:54:09;;;;;;;0.68;0.68;;;21.10;63.10;;;;;;5177718;27;20030;-67
2023/09/29 01:56:35;;;;;;;0.40;0.40;;;21.20;63.00;;;;;;5177584;27;20040;-67
2023/09/29 01:59:01;;;;;;;0.43;0.43;;;21.20;63.00;;;;;;5177409;27;20133;-67
2023/09/29 02:01:26;;;;;;;0.45;0.45;;;21.20;63.00;;;;;;5177382;27;20026;-67
2023/09/29 02:03:52;;;;;;;0.32;0.32;;;21.30;63.10;;;;;;5177070;27;20075;-65
2023/09/29 02:06:17;;;;;;;0.57;0.57;;;21.30;63.10;;;;;;5177518;27;20137;-65
2023/09/29 02:08:43;;;;;;;1.30;1.15;;;21.30;63.00;;;;;;5178224;27;20034;-66
2023/09/29 02:11:09;;;;;;;0.65;0.65;;;21.30;63.00;;;;;;5178782;27;20379;-68
2023/09/29 02:13:35;;;;;;;0.40;0.40;;;21.30;63.10;;;;;;5177886;27;20027;-68
2023/09/29 02:16:05;;;;;;;0.40;0.40;;;21.40;63.00;;;;;;5178694;27;20538;-68
2023/09/29 02:18:31;;;;;;;0.50;0.50;;;21.40;63.00;;;;;;5177832;27;20021;-68
2023/09/29 02:20:57;;;;;;;0.68;0.68;;;21.40;63.00;;;;;;5178060;27;20038;-69
2023/09/29 02:23:23;;;;;;;0.75;0.75;;;21.40;62.90;;;;;;5177935;27;20519;-69
2023/09/29 02:25:49;;;;;;;0.70;0.70;;;21.50;62.80;;;;;;5178039;27;20109;-69
2023/09/29 02:28:14;;;;;;;0.50;0.50;;;21.50;62.90;;;;;;5177960;27;20015;-68
2023/09/29 02:30:40;;;;;;;0.80;0.80;;;21.50;62.70;;;;;;5178251;27;20026;-68
2023/09/29 02:33:06;;;;;;;0.40;0.40;;;21.50;62.70;;;;;;5177697;27;20133;-68
2023/09/29 02:35:32;;;;;;;0.55;0.55;;;21.50;62.70;;;;;;5178161;27;20094;-68
2023/09/29 02:37:58;;;;;;;0.50;0.50;;;21.50;62.70;;;;;;5162851;27;20018;-68
2023/09/29 02:40:24;;;;;;;0.45;0.45;;;21.50;62.70;;;;;;5155684;27;20149;-68
2023/09/29 02:42:50;;;;;;;0.40;0.40;;;21.50;62.80;;;;;;5177492;27;20062;-68
2023/09/29 02:45:15;;;;;;;1.02;1.00;;;21.60;62.70;;;;;;5178183;27;20041;-68
2023/09/29 02:47:42;;;;;;;0.35;0.35;;;21.60;62.70;;;;;;5178317;27;20053;-68
2023/09/29 02:50:09;;;;;;;0.73;0.73;;;21.60;62.70;;;;;;5178179;27;20045;-68
2023/09/29 02:52:36;;;;;;;1.00;0.98;;;21.70;62.70;;;;;;5178065;27;20142;-68
2023/09/29 02:55:04;;;;;;;0.57;0.57;;;21.60;62.60;;;;;;5177950;27;20038;-69
2023/09/29 02:57:30;;;;;;;0.43;0.43;;;21.70;62.60;;;;;;5177519;27;20133;-68
2023/09/29 02:59:57;;;;;;;1.15;0.98;;;21.70;62.60;;;;;;5176034;27;20069;-68
2023/09/29 03:02:23;;;;;;;0.77;0.77;;;21.70;62.60;;;;;;5176403;27;20101;-68
2023/09/29 03:04:51;;;;;;;0.95;0.90;;;21.80;62.50;;;;;;5177235;27;20083;-68
2023/09/29 03:07:17;;;;;;;0.60;0.60;;;21.80;62.50;;;;;;5177097;27;20030;-67
2023/09/29 03:09:42;;;;;;;1.42;1.25;;;21.90;62.50;;;;;;5176755;27;20030;-66
2023/09/29 03:12:08;;;;;;;0.50;0.50;;;21.90;62.30;;;;;;5176535;27;20033;-66
2023/09/29 03:14:34;;;;;;;0.45;0.45;;;22.00;62.20;;;;;;5175288;27;20037;-66
2023/09/29 03:17:02;;;;;;;0.60;0.60;;;22.00;62.00;;;;;;5176814;27;20434;-69
2023/09/29 03:19:30;;;;;;;0.55;0.55;;;22.00;61.90;;;;;;5175640;27;20246;-65
2023/09/29 03:21:58;;;;;;;0.50;0.50;;;22.00;61.80;;;;;;5175691;27;20565;-65
2023/09/29 03:24:28;;;;;;;0.73;0.73;;;22.00;61.80;;;;;;5175834;27;20037;-67
2023/09/29 03:26:54;;;;;;;0.40;0.40;;;22.00;61.80;;;;;;5175838;27;20496;-66
2023/09/29 03:29:19;;;;;;;0.40;0.40;;;22.00;61.80;;;;;;5175726;27;20022;-66
2023/09/29 03:31:46;;;;;;;0.45;0.45;;;22.00;61.80;;;;;;5175528;27;20048;-66
2023/09/29 03:34:13;;;;;;;0.40;0.40;;;22.00;61.70;;;;;;5175384;27;20026;-65
2023/09/29 03:36:39;;;;;;;0.40;0.40;;;22.00;61.70;;;;;;5172284;27;20471;-68
2023/09/29 03:39:09;;;;;;;0.50;0.50;;;22.10;61.70;;;;;;5154152;27;20033;-67
2023/09/29 03:41:35;;;;;;;0.55;0.55;;;22.00;61.60;;;;;;5164612;27;20160;-67
2023/09/29 03:44:00;;;;;;;0.63;0.63;;;22.10;61.60;;;;;;5175048;27;20070;-68
2023/09/29 03:46:26;;;;;;;0.40;0.40;;;22.10;61.50;;;;;;5175242;27;20105;-67
2023/09/29 03:48:52;;;;;;;0.80;0.80;;;22.10;61.50;;;;;;5174967;27;20045;-68
2023/09/29 03:51:24;;;;;;;0.63;0.63;;;22.20;61.40;;;;;;5175250;27;20401;-67
2023/09/29 03:53:51;;;;;;;0.40;0.40;;;22.20;61.30;;;;;;5175023;27;20045;-67
2023/09/29 03:56:16;;;;;;;0.50;0.50;;;22.30;61.30;;;;;;5174784;27;20065;-67
2023/09/29 03:58:43;;;;;;;0.30;0.30;;;22.30;61.30;;;;;;5173841;27;20055;-67
2023/09/29 04:01:08;;;;;;;0.77;0.77;;;22.30;61.20;;;;;;5175302;27;20027;-67
2023/09/29 04:03:34;;;;;;;0.40;0.40;;;22.30;61.10;;;;;;5174709;27;20368;-67
2023/09/29 04:06:00;;;;;;;0.85;0.85;;;22.30;61.10;;;;;;5174630;27;20510;-68
2023/09/29 04:08:25;;;;;;;0.90;0.90;;;22.40;61.00;;;;;;5174768;27;20025;-67
2023/09/29 04:10:52;;;;;;;0.40;0.40;;;22.30;60.90;;;;;;5175022;27;20025;-68
2023/09/29 04:13:18;;;;;;;0.52;0.52;;;22.40;60.80;;;;;;5174494;27;20024;-67
2023/09/29 04:15:44;;;;;;;0.30;0.30;;;22.40;60.80;;;;;;5174633;27;20412;-67
2023/09/29 04:18:09;;;;;;;0.47;0.47;;;22.40;60.70;;;;;;5174497;27;20034;-67
2023/09/29 04:20:35;;;;;;;1.15;1.05;;;22.40;60.60;;;;;;5174901;27;20075;-68
2023/09/29 04:23:01;;;;;;;0.50;0.50;;;22.40;60.60;;;;;;5173484;27;20051;-68
2023/09/29 04:25:26;;;;;;;0.40;0.40;;;22.50;60.60;;;;;;5174814;27;20033;-67
2023/09/29 04:27:52;;;;;;;0.40;0.40;;;22.50;60.50;;;;;;5174357;27;20045;-68
2023/09/29 04:30:17;;;;;;;1.20;0.80;;;22.50;60.50;;;;;;5174565;27;20045;-67
2023/09/29 04:32:43;;;;;;;0.40;0.40;;;22.50;60.40;;;;;;5173024;27;20053;-67
2023/09/29 04:35:08;;;;;;;0.50;0.50;;;22.50;60.30;;;;;;5174531;27;20371;-69
2023/09/29 04:37:34;;;;;;;0.43;0.43;;;22.50;60.30;;;;;;5163327;27;20026;-67
2023/09/29 04:39:59;;;;;;;0.60;0.60;;;22.50;60.20;;;;;;5152951;27;20042;-67
2023/09/29 04:42:25;;;;;;;0.45;0.45;;;22.50;60.20;;;;;;5170625;27;20018;-67
2023/09/29 04:44:51;;;;;;;0.52;0.52;;;22.50;60.20;;;;;;5174169;27;20059;-67
2023/09/29 04:47:17;;;;;;;0.50;0.50;;;22.50;60.20;;;;;;5174318;27;20027;-67
2023/09/29 04:49:43;;;;;;;0.63;0.63;;;22.50;60.10;;;;;;5173869;27;20518;-68
2023/09/29 04:52:08;;;;;;;0.60;0.60;;;22.50;60.10;;;;;;5174239;27;20209;-67
2023/09/29 04:54:34;;;;;;;0.30;0.30;;;22.50;60.20;;;;;;5173803;27;20034;-67
2023/09/29 04:56:59;;;;;;;1.13;1.02;;;22.50;60.20;;;;;;5173802;27;20506;-67
2023/09/29 04:59:25;;;;;;;0.70;0.70;;;22.50;60.20;;;;;;5174159;27;20029;-67
2023/09/29 05:01:51;;;;;;;0.30;0.30;;;22.40;60.10;;;;;;5173897;27;20018;-67
2023/09/29 05:04:16;;;;;;;0.50;0.50;;;22.50;60.10;;;;;;5173660;27;20057;-67
2023/09/29 05:06:43;;;;;;;0.40;0.40;;;22.50;60.10;;;;;;5174070;27;20027;-67
2023/09/29 05:09:11;;;;;;;0.50;0.50;;;22.50;60.10;;;;;;5172126;27;20034;-67
2023/09/29 05:11:37;;;;;;;0.45;0.45;;;22.50;60.10;;;;;;5173811;27;20071;-67
2023/09/29 05:14:02;;;;;;;0.52;0.52;;;22.50;60.10;;;;;;5173454;27;20305;-67
2023/09/29 05:16:28;;;;;;;0.40;0.40;;;22.50;60.10;;;;;;5173612;27;20025;-67
2023/09/29 05:18:54;;;;;;;0.75;0.63;;;22.50;60.10;;;;;;5173552;27;20075;-68
2023/09/29 05:21:20;;;;;;;0.40;0.40;;;22.50;60.00;;;;;;5173572;27;20019;-68
2023/09/29 05:23:46;;;;;;;0.45;0.45;;;22.60;60.00;;;;;;5173836;27;20015;-67
2023/09/29 05:26:12;;;;;;;0.70;0.70;;;22.60;60.00;;;;;;5174823;27;20034;-67
2023/09/29 05:28:38;;;;;;;0.40;0.40;;;22.70;60.00;;;;;;5177957;27;20128;-67
2023/09/29 05:31:03;;;;;;;0.35;0.35;;;22.70;59.90;;;;;;5176577;27;20489;-68
2023/09/29 05:33:30;;;;;;;0.68;0.68;;;22.70;59.90;;;;;;5171587;27;20076;-67
2023/09/29 05:35:55;;;;;;;0.50;0.50;;;22.70;59.80;;;;;;5177746;27;20034;-67
2023/09/29 05:38:21;;;;;;;0.50;0.50;;;22.70;59.70;;;;;;5174518;27;20365;-69
2023/09/29 05:40:47;;;;;;;0.35;0.35;;;22.80;59.70;;;;;;5176457;27;20026;-68
2023/09/29 05:43:13;;;;;;;0.40;0.40;;;22.80;59.60;;;;;;5161168;27;20471;-68
2023/09/29 05:45:42;;;;;;;0.50;0.50;;;22.80;59.60;;;;;;5176872;27;20087;-67
2023/09/29 05:48:08;;;;;;;1.10;1.02;;;22.80;59.60;;;;;;5177415;27;20044;-67
2023/09/29 05:50:34;;;;;;;0.47;0.47;;;22.80;59.50;;;;;;5175881;27;20070;-67
2023/09/29 05:52:59;;;;;;;0.40;0.40;;;22.80;59.40;;;;;;5174891;27;20494;-68
2023/09/29 05:55:25;;;;;;;0.60;0.60;;;22.80;59.40;;;;;;5177453;27;20457;-69
2023/09/29 05:57:51;;;;;;;0.40;0.40;;;22.90;59.30;;;;;;5175638;27;20050;-68
2023/09/29 06:00:18;;;;;;;0.50;0.50;;;22.90;59.30;;;;;;5177375;27;20356;-67
2023/09/29 06:02:45;;;;;;;0.40;0.40;;;22.90;59.30;;;;;;5175131;27;20022;-68
2023/09/29 06:05:11;;;;;;;0.60;0.60;;;22.90;59.30;;;;;;5175781;27;20073;-68
2023/09/29 06:07:36;;;;;;;0.40;0.40;;;22.90;59.30;;;;;;5176929;27;20042;-67
2023/09/29 06:10:04;;;;;;;0.50;0.50;;;22.90;59.30;;;;;;5163641;27;20463;-68
2023/09/29 06:12:29;;;;;;;0.75;0.75;;;22.90;59.40;;;;;;5167687;27;20025;-68
2023/09/29 06:14:55;;;;;;;0.40;0.40;;;22.90;59.40;;;;;;5166283;27;20027;-67
2023/09/29 06:17:21;;;;;;;0.50;0.50;;;23.00;59.40;;;;;;5156054;27;20113;-69
2023/09/29 06:19:48;;;;;;;1.15;0.77;;;23.00;59.40;;;;;;5153455;27;20501;-67
2023/09/29 06:22:13;;;;;;;0.55;0.50;;;23.10;59.30;;;;;;5155768;27;20078;-68
2023/09/29 06:24:39;;;;;;;0.40;0.40;;;23.00;59.30;;;;;;5166626;27;20112;-67
2023/09/29 06:27:05;;;;;;;0.60;0.60;;;23.00;59.30;;;;;;5175796;27;20463;-68
2023/09/29 06:29:30;;;;;;;0.65;0.65;;;23.10;59.30;;;;;;5168508;27;20390;-67
2023/09/29 06:31:56;;;;;;;0.70;0.70;;;23.10;59.30;;;;;;5155720;27;20022;-68
2023/09/29 06:34:22;;;;;;;0.40;0.40;;;23.20;59.30;;;;;;5175061;27;20031;-68
2023/09/29 06:36:47;;;;;;;0.50;0.50;;;23.20;59.20;;;;;;5171647;27;20026;-66
2023/09/29 06:39:14;;;;;;;0.40;0.40;;;23.20;59.10;;;;;;5163030;27;20034;-66
2023/09/29 06:41:39;;;;;;;0.40;0.40;;;23.30;59.10;;;;;;5174959;27;20022;-65
2023/09/29 06:44:05;;;;;;;1.15;1.05;;;23.30;59.00;;;;;;5175802;27;20030;-67
2023/09/29 06:46:31;;;;;;;0.57;0.57;;;23.40;58.80;;;;;;5175566;27;20088;-66
2023/09/29 06:48:58;;;;;;;0.47;0.47;;;23.50;58.70;;;;;;5171275;27;20026;-67
2023/09/29 06:51:23;;;;;;;0.57;0.50;;;23.50;58.60;;;;;;5174923;27;20478;-66
2023/09/29 06:53:49;;;;;;;0.47;0.47;;;23.70;58.50;;;;;;5175586;27;20070;-67
2023/09/29 06:56:14;;;;;;;0.40;0.40;;;23.70;58.40;;;;;;5173662;27;20114;-67
2023/09/29 06:58:40;;;;;;;0.50;0.50;;;23.80;58.20;;;;;;5166508;27;20030;-69
2023/09/29 07:01:05;;;;;;;0.40;0.40;;;23.80;58.00;;;;;;5171008;27;20360;-66
2023/09/29 07:03:31;;;;;;;0.40;0.40;;;24.00;57.90;;;;;;5173967;27;20038;-67
2023/09/29 07:06:00;;;;;;;0.40;0.40;;;24.00;57.70;;;;;;5175867;27;20467;-66
2023/09/29 07:08:27;;;;;;;0.50;0.50;;;24.10;57.60;;;;;;5174858;27;20205;-66
2023/09/29 07:10:52;;;;;;;0.52;0.52;;;24.20;57.50;;;;;;5152258;27;20113;-67
2023/09/29 07:13:18;;;;;;;0.73;0.60;;;24.30;57.20;;;;;;5156268;27;20484;-67
2023/09/29 07:15:45;;;;;;;0.52;0.52;;;24.40;57.10;;;;;;5175711;27;20026;-67
2023/09/29 07:18:12;;;;;;;0.40;0.40;;;24.50;56.90;;;;;;5175745;27;20109;-69
2023/09/29 07:20:39;;;;;;;0.45;0.45;;;24.60;56.50;;;;;;5170367;27;20065;-67
2023/09/29 07:23:05;;;;;;;0.50;0.50;;;24.60;56.30;;;;;;5175399;27;20463;-67
2023/09/29 07:25:30;;;;;;;0.40;0.40;;;24.70;56.10;;;;;;5174592;27;20075;-66
2023/09/29 07:27:56;;;;;;;0.40;0.40;;;24.70;56.00;;;;;;5175477;27;20105;-67
2023/09/29 07:30:22;;;;;;;0.68;0.68;;;24.80;55.80;;;;;;5169186;27;20034;-67
2023/09/29 07:32:47;;;;;;;0.40;0.40;;;24.90;55.60;;;;;;5174618;27;20027;-67
2023/09/29 07:35:13;;;;;;;0.40;0.40;;;25.00;55.30;;;;;;5175424;27;20094;-67
2023/09/29 07:37:39;;;;;;;2.83;1.30;;;25.00;55.20;;;;;;5170366;27;20027;-66
2023/09/29 07:40:08;;;;;;;0.75;0.70;;;25.10;54.90;;;;;;5170617;27;20030;-67
2023/09/29 07:42:34;;;;;;;0.43;0.43;;;25.10;54.80;;;;;;5174383;27;20022;-67
2023/09/29 07:44:59;;;;;;;0.50;0.50;;;25.20;54.70;;;;;;5174609;27;20031;-67
2023/09/29 07:47:25;;;;;;;0.57;0.57;;;25.30;54.40;;;;;;5171091;27;20094;-66
2023/09/29 07:49:50;;;;;;;0.55;0.55;;;25.30;54.30;;;;;;5174388;27;20034;-67
2023/09/29 07:52:16;;;;;;;0.50;0.50;;;25.40;54.00;;;;;;5174978;27;20026;-69
2023/09/29 07:54:41;;;;;;;0.47;0.47;;;25.50;53.70;;;;;;5174460;27;20042;-67
2023/09/29 07:57:07;;;;;;;0.45;0.45;;;25.60;53.50;;;;;;5175233;27;20478;-68
2023/09/29 07:59:32;;;;;;;0.47;0.47;;;25.60;53.30;;;;;;5178411;27;20036;-69
2023/09/29 08:01:59;;;;;;;0.30;0.30;;;25.60;53.00;;;;;;5178926;27;20033;-69
2023/09/29 08:04:25;;;;;;;0.40;0.40;;;25.70;52.90;;;;;;5178529;27;20053;-69
2023/09/29 08:06:51;;;;;;;0.63;0.63;;;25.80;52.60;;;;;;5178464;27;20059;-69
2023/09/29 08:09:16;;;;;;;2.05;1.02;;;25.80;52.40;;;;;;5179671;27;20078;-69
2023/09/29 08:11:42;;;;;;;0.40;0.40;;;26.00;52.20;;;;;;5177572;27;20026;-69
2023/09/29 08:14:08;;;;;;;0.40;0.40;;;26.10;51.90;;;;;;5177924;27;20105;-69
2023/09/29 08:16:34;;;;;;;0.47;0.47;;;26.20;51.60;;;;;;5155905;27;20027;-69
2023/09/29 08:19:01;;;;;;;0.70;0.70;;;26.30;51.20;;;;;;5157407;27;20050;-69
2023/09/29 08:21:26;;;;;;;0.50;0.50;;;26.40;50.80;;;;;;5172363;27;20029;-70
2023/09/29 08:23:52;;;;;;;0.40;0.40;;;26.50;50.40;;;;;;5156712;27;20022;-70
2023/09/29 08:26:17;;;;;;;0.68;0.68;;;26.70;50.20;;;;;;5162908;27;20132;-70
2023/09/29 08:28:43;;;;;;;0.50;0.50;;;26.80;49.80;;;;;;5172898;27;20014;-70
2023/09/29 08:31:13;;;;;;;0.93;0.93;;;26.90;49.50;;;;;;5152749;27;20425;-70
2023/09/29 08:33:39;;;;;;;0.65;0.65;;;27.00;49.30;;;;;;5167326;27;20123;-68
2023/09/29 08:36:05;;;;;;;0.60;0.60;;;27.20;49.00;;;;;;5177033;27;20030;-68
2023/09/29 08:38:30;;;;;;;0.50;0.50;;;27.30;48.80;;;;;;5161931;27;20030;-69
2023/09/29 08:40:57;;;;;;;0.40;0.40;;;27.40;48.60;;;;;;5171387;27;20058;-69
2023/09/29 08:43:28;;;;;;;0.47;0.47;;;27.50;48.30;;;;;;5162707;27;20119;-69
2023/09/29 08:45:58;;;;;;;0.77;0.70;;;27.70;48.20;;;;;;5163940;27;20546;-69
2023/09/29 08:48:29;;;;;;;0.50;0.50;;;27.80;48.00;;;;;;5174424;27;20057;-69
2023/09/29 08:51:00;;;;;;;0.50;0.50;;;27.80;47.70;;;;;;5171471;27;20463;-69
2023/09/29 08:53:26;;;;;;;0.50;0.50;;;28.00;47.70;;;;;;5175772;27;20015;-69
2023/09/29 08:55:54;;;;;;;0.70;0.70;;;28.10;47.10;;;;;;5175310;27;20037;-69
2023/09/29 08:58:21;;;;;;;1.65;1.15;;;28.20;46.70;;;;;;5173916;27;20056;-69
2023/09/29 09:00:48;;;;;;;0.40;0.40;;;28.30;47.00;;;;;;5170573;27;20030;-67
2023/09/29 09:03:14;;;;;;;0.75;0.63;;;28.40;46.70;;;;;;5173403;27;20018;-67
2023/09/29 09:05:39;;;;;;;0.60;0.55;;;28.50;46.50;;;;;;5171528;27;20423;-67
2023/09/29 09:08:06;;;;;;;0.98;0.88;;;28.70;46.20;;;;;;5171300;27;20416;-67
2023/09/29 09:10:33;;;;;;;0.40;0.40;;;28.90;46.50;;;;;;5168971;27;20018;-67
2023/09/29 09:12:59;;;;;;;0.50;0.50;;;29.30;46.80;;;;;;5171398;27;20035;-67
2023/09/29 09:15:25;;;;;;;0.30;0.30;;;29.80;46.30;;;;;;5170631;27;20055;-68
2023/09/29 09:17:50;;;;;;;0.40;0.40;;;30.40;45.60;;;;;;5171497;27;20064;-68
2023/09/29 09:20:16;;;;;;;1.23;0.88;;;31.00;45.10;;;;;;5169732;27;20031;-67
2023/09/29 09:22:42;;;;;;;1.20;0.80;;;31.40;43.60;;;;;;5164652;27;20202;-68
2023/09/29 09:25:09;;;;;;;0.50;0.50;;;31.70;42.00;;;;;;5170318;27;20038;-69
2023/09/29 09:27:39;;;;;;;6.75;0.70;;;31.70;40.30;;;;;;5175342;27;20416;-71
2023/09/29 09:30:05;;;;;;;0.45;0.45;;;31.80;40.70;;;;;;5172234;27;20026;-71
2023/09/29 09:32:31;;;;;;;0.40;0.40;;;32.10;40.80;;;;;;5173916;27;20168;-71
2023/09/29 09:34:58;;;;;;;0.93;0.88;;;32.20;40.40;;;;;;5175024;27;20471;-71
2023/09/29 09:37:29;;;;;;;0.50;0.50;;;32.40;39.50;;;;;;5170960;27;20145;-71
2023/09/29 09:39:59;;;;;;;0.50;0.50;;;32.60;39.80;;;;;;5170169;27;20037;-70
2023/09/29 09:42:27;;;;;;;;;;;32.70;38.80;;;;;;5172216;27;20098;-71
2023/09/29 09:44:59;;;;;;;0.50;0.50;;;32.80;39.00;;;;;;5162366;27;19921;-71
2023/09/29 09:47:26;;;;;;;0.60;0.60;;;33.30;38.90;;;;;;5170546;27;20060;-71
2023/09/29 09:49:55;;;;;;;0.55;0.55;;;33.50;38.20;;;;;;5161216;27;20352;-71
2023/09/29 09:52:25;;;;;;;0.50;0.50;;;33.70;37.40;;;;;;5171797;27;20033;-71
2023/09/29 09:54:57;;;;;;;0.50;0.50;;;33.80;37.00;;;;;;5154856;27;20678;-71
2023/09/29 09:57:39;;;;;;;0.50;0.50;;;33.70;36.60;;;;;;5173941;27;20022;-71
2023/09/29 10:00:07;;;;;;;0.40;0.40;;;33.60;36.90;;;;;;5170004;27;20390;-71
2023/09/29 10:02:49;;;;;;;0.65;0.65;;;33.30;37.00;;;;;;5168331;27;20113;-71
2023/09/29 10:05:28;;;;;;;0.40;0.40;;;33.00;37.10;;;;;;5165339;27;20035;-71
2023/09/29 10:08:12;;;;;;;0.73;0.73;;;32.80;37.60;;;;;;5175103;27;20018;-71
2023/09/29 10:10:40;;;;;;;2.25;0.65;;;32.60;38.10;;;;;;5169637;27;20064;-71
2023/09/29 10:13:11;;;;;;;0.40;0.40;;;32.60;38.20;;;;;;5166719;27;20030;-71
2023/09/29 10:15:41;;;;;;;0.60;0.60;;;32.50;38.10;;;;;;5164795;27;20109;-71
2023/09/29 10:18:18;;;;;;;0.68;0.68;;;32.40;38.10;;;;;;5159533;27;20034;-71
2023/09/29 10:20:46;;;;;;;0.50;0.50;;;32.40;38.50;;;;;;5172210;27;20529;-71
2023/09/29 10:23:13;;;;;;;0.52;0.52;;;32.50;38.80;;;;;;5176180;27;20058;-71
2023/09/29 10:25:42;;;;;;;1.00;0.75;;;32.80;38.80;;;;;;5178717;27;20064;-71
2023/09/29 10:28:08;;;;;;;1.30;0.95;;;33.20;38.20;;;;;;5173461;27;20023;-71
2023/09/29 10:30:35;;;;;;;0.60;0.60;;;33.60;38.00;;;;;;5173835;27;20557;-71
2023/09/29 10:33:11;;;;;;;0.52;0.52;;;33.80;37.50;;;;;;5166318;27;20014;-71
2023/09/29 10:35:45;;;;;;;0.60;0.60;;;34.00;37.40;;;;;;5178849;27;20431;-71
2023/09/29 10:38:31;;;;;;;1.65;0.75;;;34.10;36.50;;;;;;5166310;27;20030;-71
2023/09/29 10:41:00;;;;;;;0.63;0.63;;;34.00;36.70;;;;;;5173193;27;20457;-71
2023/09/29 10:43:26;;;;;;;0.50;0.50;;;34.30;37.10;;;;;;5163196;27;20079;-71
2023/09/29 10:45:52;;;;;;;0.50;0.50;;;34.60;36.20;;;;;;5156138;27;20027;-70
2023/09/29 10:48:20;;;;;;;0.70;0.70;;;34.70;35.70;;;;;;5175001;27;20121;-69
2023/09/29 10:50:51;;;;;;;0.55;0.55;;;34.70;35.40;;;;;;5172889;27;20037;-71
2023/09/29 10:53:22;;;;;;;0.52;0.52;;;34.40;35.50;;;;;;5176355;27;20034;-70
2023/09/29 10:55:52;;;;;;;0.82;0.80;;;34.10;35.90;;;;;;5177246;27;20543;-70
2023/09/29 10:58:18;;;;;;;;;;;33.80;36.30;;;;;;5167004;27;20110;-70
2023/09/29 11:00:46;;;;;;;2.30;0.70;;;33.40;36.70;;;;;;5172216;27;20336;-71
2023/09/29 11:03:14;;;;;;;0.50;0.50;;;33.30;37.30;;;;;;5166933;27;20542;-69
2023/09/29 11:05:48;;;;;;;0.80;0.80;;;33.10;37.80;;;;;;5171424;27;20026;-69
2023/09/29 11:08:14;;;;;;;0.50;0.50;;;33.10;38.30;;;;;;5165204;27;20019;-69
2023/09/29 11:10:41;;;;;;;0.95;0.95;;;33.30;38.20;;;;;;5170263;27;20332;-70
2023/09/29 11:13:16;;;;;;;0.60;0.60;;;33.30;38.20;;;;;;5167160;27;20104;-69
2023/09/29 11:15:41;;;;;;;0.52;0.52;;;33.40;38.40;;;;;;5157620;27;20082;-69
2023/09/29 11:18:07;;;;;;;0.68;0.68;;;33.60;38.10;;;;;;5172731;27;20030;-71
2023/09/29 11:20:32;;;;;;;1.65;1.35;;;33.80;37.80;;;;;;5173435;27;20037;-71
2023/09/29 11:23:16;;;;;;;0.50;0.50;;;33.90;37.40;;;;;;5176115;27;20062;-71
2023/09/29 11:25:57;;;;;;;0.57;0.57;;;33.80;37.00;;;;;;5178086;27;20037;-69
2023/09/29 11:28:24;;;;;;;0.40;0.40;;;33.60;37.20;;;;;;5178284;27;20018;-71
2023/09/29 11:30:50;;;;;;;0.63;0.63;;;33.50;37.10;;;;;;5172879;27;20054;-70
2023/09/29 11:33:16;;;;;;;0.40;0.40;;;33.40;37.20;;;;;;5175532;27;20110;-69
2023/09/29 11:35:45;;;;;;;0.60;0.60;;;33.30;37.60;;;;;;5178911;27;20462;-69
2023/09/29 11:38:20;;;;;;;0.50;0.50;;;33.40;37.90;;;;;;5169736;27;20022;-69
2023/09/29 11:40:50;;;;;;;0.70;0.70;;;33.50;37.80;;;;;;5174094;27;20030;-69
2023/09/29 11:43:16;;;;;;;0.60;0.60;;;33.60;37.30;;;;;;5172984;27;20491;-70
2023/09/29 11:45:43;;;;;;;0.50;0.50;;;33.60;37.20;;;;;;5177729;27;20117;-70
2023/09/29 11:48:09;;;;;;;0.60;0.60;;;33.70;37.10;;;;;;5178074;27;20037;-70
2023/09/29 11:50:35;;;;;;;0.40;0.40;;;33.70;36.80;;;;;;5168696;27;20371;-71
2023/09/29 11:53:05;;;;;;;0.60;0.60;;;33.80;36.70;;;;;;5168104;27;20114;-71
2023/09/29 11:55:38;;;;;;;0.40;0.40;;;33.90;36.30;;;;;;5178329;27;20038;-71
2023/09/29 11:58:04;;;;;;;0.70;0.70;;;33.90;36.20;;;;;;5177559;27;20018;-71
2023/09/29 12:00:31;;;;;;;0.60;0.60;;;33.80;36.20;;;;;;5170826;27;20078;-71
2023/09/29 12:02:56;;;;;;;0.95;0.73;;;33.80;36.30;;;;;;5178209;27;20065;-71
2023/09/29 12:05:22;;;;;;;0.50;0.50;;;33.80;36.30;;;;;;5176380;27;20385;-68
2023/09/29 12:07:48;;;;;;;0.68;0.68;;;33.80;36.30;;;;;;5174746;27;20360;-68
2023/09/29 12:10:17;;;;;;;0.43;0.43;;;33.70;36.10;;;;;;5167613;27;20378;-68
2023/09/29 12:12:42;;;;;;;0.47;0.47;;;33.40;36.10;;;;;;5168519;27;20026;-68
2023/09/29 12:15:08;;;;;;;0.40;0.40;;;33.20;36.30;;;;;;5153806;27;20386;-68
2023/09/29 12:17:34;;;;;;;0.63;0.63;;;32.90;36.80;;;;;;5159411;27;20018;-68
2023/09/29 12:20:00;;;;;;;0.77;0.77;;;32.70;37.20;;;;;;5167978;27;20133;-69
2023/09/29 12:22:26;;;;;;;0.60;0.60;;;32.50;37.60;;;;;;5173143;27;20411;-67
2023/09/29 12:24:51;;;;;;;0.50;0.50;;;32.30;38.00;;;;;;5173693;27;20040;-67
2023/09/29 12:27:17;;;;;;;0.40;0.40;;;32.10;38.40;;;;;;5170193;27;20064;-66
2023/09/29 12:29:42;;;;;;;0.82;0.82;;;32.00;38.70;;;;;;5159008;27;20045;-67
2023/09/29 12:32:08;;;;;;;0.57;0.57;;;31.80;39.00;;;;;;5168741;27;20423;-67
2023/09/29 12:34:34;;;;;;;0.40;0.40;;;31.80;39.30;;;;;;5153228;27;20092;-67
2023/09/29 12:37:00;;;;;;;0.50;0.50;;;31.80;39.40;;;;;;5155700;27;20033;-67
2023/09/29 12:39:26;;;;;;;0.40;0.40;;;31.90;39.50;;;;;;5168422;27;20114;-67
2023/09/29 12:41:52;;;;;;;0.60;0.60;;;31.80;39.40;;;;;;5169358;27;20084;-72
2023/09/29 12:44:17;;;;;;;0.50;0.50;;;31.80;39.70;;;;;;5157448;27;20030;-66
2023/09/29 12:46:43;;;;;;;0.52;0.52;;;32.00;39.80;;;;;;5172556;27;20124;-67
2023/09/29 12:49:09;;;;;;;0.47;0.47;;;32.10;39.60;;;;;;5169967;27;20044;-68